< < Back
Terminal Aerodrome Forecast


Current Version              Previous Versions:   1  2  3  4  5  6  7  8  9  

Terminal Aerodrome Forecast

269
FTUS44 KMRX 201122
TAFCHA
TAF
KCHA 201122Z 2012/2112 02004KT P6SM BKN050
     FM201400 01005KT P6SM SCT050 BKN100
     FM210000 01003KT P6SM SCT200=

Latest METAR

380
SAUS80 KWBC 211200 CCA
MTRCHA
METAR KCHA 211153Z 00000KT 7SM SCT026 OVC037 01/00 A3024 RMK AO2 SLP242
T00110000 10017 21006 55000


USA.gov is the U.S. government's official web portal to all federal, state and local government web resources and services.